createdAt,value
2022-09-07T00:02:21.979Z,3.40
2022-09-07T00:06:23.192Z,3.20
2022-09-07T00:10:24.884Z,4.30
2022-09-07T00:14:26.035Z,5.33
2022-09-07T00:18:29.564Z,3.77
2022-09-07T00:22:30.953Z,4.53
2022-09-07T00:26:31.994Z,2.53
2022-09-07T00:30:34.393Z,2.67
2022-09-07T00:34:35.518Z,2.87
2022-09-07T00:38:36.758Z,2.50
2022-09-07T00:42:37.789Z,3.23
2022-09-07T00:46:38.987Z,3.37
2022-09-07T00:50:52.214Z,6.10
2022-09-07T00:54:56.919Z,2.90
2022-09-07T00:58:58.637Z,6.17
2022-09-07T01:03:01.293Z,3.63
2022-09-07T01:07:03.546Z,3.60
2022-09-07T01:11:05.406Z,3.60
2022-09-07T01:15:07.505Z,4.33
2022-09-07T01:19:27.785Z,3.77
2022-09-07T01:23:47.416Z,4.03
2022-09-07T01:28:07.653Z,3.37
2022-09-07T01:32:42.390Z,4.07
2022-09-07T01:36:50.342Z,5.13
2022-09-07T01:40:58.419Z,4.03
2022-09-07T01:45:08.359Z,4.40
2022-09-07T01:49:19.503Z,5.00
2022-09-07T01:53:29.956Z,4.20
2022-09-07T01:57:37.676Z,6.60
2022-09-07T02:01:45.448Z,6.03
2022-09-07T02:05:53.559Z,4.83
2022-09-07T02:09:58.391Z,6.70
2022-09-07T02:14:06.155Z,7.10
2022-09-07T02:18:10.307Z,4.80
2022-09-07T02:22:15.359Z,5.23
2022-09-07T02:26:19.411Z,5.33
2022-09-07T02:30:20.634Z,6.70
2022-09-07T02:34:21.896Z,6.00
2022-09-07T02:38:24.425Z,6.53
2022-09-07T02:42:28.690Z,6.03
2022-09-07T02:46:36.473Z,6.70
2022-09-07T02:50:43.897Z,8.17
2022-09-07T02:55:10.421Z,5.83
2022-09-07T02:59:18.431Z,7.70
2022-09-07T03:03:32.575Z,6.83
2022-09-07T03:07:40.967Z,9.07
2022-09-07T03:11:40.543Z,10.27
2022-09-07T03:15:41.483Z,9.93
2022-09-07T03:19:42.584Z,9.73
2022-09-07T03:23:43.694Z,11.03
2022-09-07T03:27:44.827Z,9.43
2022-09-07T03:31:46.177Z,9.37
2022-09-07T03:35:59.663Z,10.40
2022-09-07T03:40:01.104Z,12.43
2022-09-07T03:44:05.042Z,9.85
2022-09-07T03:48:06.182Z,7.87
2022-09-07T03:52:07.790Z,8.20
2022-09-07T03:56:12.111Z,8.40
2022-09-07T04:00:15.925Z,7.80
2022-09-07T04:04:17.085Z,8.13
2022-09-07T04:08:18.109Z,11.13
2022-09-07T04:12:19.080Z,9.37
2022-09-07T04:16:22.853Z,17.00
2022-09-07T04:20:24.885Z,14.57
2022-09-07T04:24:26.065Z,15.17
2022-09-07T04:28:27.260Z,14.23
2022-09-07T04:32:28.261Z,12.78
2022-09-07T04:36:29.394Z,11.13
2022-09-07T04:40:30.547Z,10.20
2022-09-07T04:44:31.800Z,10.87
2022-09-07T04:48:32.931Z,11.67
2022-09-07T04:52:33.945Z,13.20
2022-09-07T04:56:34.975Z,12.03
2022-09-07T05:00:38.315Z,15.17
2022-09-07T05:04:39.612Z,12.80
2022-09-07T05:08:48.909Z,13.00
2022-09-07T05:12:50.718Z,11.93
2022-09-07T05:16:51.943Z,12.97
2022-09-07T05:20:53.023Z,14.33
2022-09-07T05:24:53.951Z,12.90
2022-09-07T05:32:58.314Z,10.97
2022-09-07T05:36:59.933Z,10.80
2022-09-07T05:41:05.053Z,12.93
2022-09-07T05:45:06.836Z,11.30
2022-09-07T05:49:07.986Z,11.70
2022-09-07T05:53:09.091Z,11.27
2022-09-07T05:57:13.251Z,12.37
2022-09-07T06:01:15.407Z,12.60
2022-09-07T06:05:17.120Z,11.77
2022-09-07T06:09:18.064Z,9.37
2022-09-07T06:13:19.307Z,7.97
2022-09-07T06:17:20.440Z,6.07
2022-09-07T06:21:23.491Z,7.40
2022-09-07T06:25:24.607Z,5.47
2022-09-07T06:29:25.633Z,6.93
2022-09-07T06:33:26.770Z,6.70
2022-09-07T06:37:27.893Z,7.73
2022-09-07T06:45:33.308Z,6.53
2022-09-07T06:49:34.392Z,3.50
2022-09-07T06:53:38.552Z,3.30
2022-09-07T06:57:40.070Z,3.70
2022-09-07T07:01:41.089Z,5.10
2022-09-07T07:05:44.791Z,2.57
2022-09-07T07:09:45.751Z,3.73
2022-09-07T07:13:46.986Z,8.20
2022-09-07T07:17:53.157Z,3.23
2022-09-07T07:22:23.730Z,11.37
2022-09-07T07:25:55.822Z,3.73
2022-09-07T07:29:57.374Z,4.87
2022-09-07T07:33:58.576Z,3.73
2022-09-07T07:42:03.436Z,6.07
2022-09-07T07:46:06.389Z,4.70
2022-09-07T07:54:11.212Z,3.97
2022-09-07T07:58:12.405Z,5.90
2022-09-07T08:02:15.487Z,11.17
2022-09-07T08:06:18.860Z,6.80
2022-09-07T08:10:19.970Z,4.30
2022-09-07T08:14:21.361Z,4.33
2022-09-07T08:18:22.475Z,3.90
2022-09-07T08:22:23.528Z,8.47
2022-09-07T08:26:24.525Z,5.03
2022-09-07T08:30:25.834Z,3.73
2022-09-07T08:34:26.925Z,4.53
2022-09-07T08:38:32.670Z,5.87
2022-09-07T08:42:40.548Z,4.30
2022-09-07T08:46:51.267Z,4.27
2022-09-07T08:51:02.064Z,5.27
2022-09-07T08:55:12.643Z,4.33
2022-09-07T08:59:26.459Z,8.27
2022-09-07T09:03:33.035Z,4.80
2022-09-07T09:07:49.752Z,3.23
2022-09-07T09:12:12.977Z,4.77
2022-09-07T09:16:17.824Z,3.97
2022-09-07T09:20:25.532Z,5.80
2022-09-07T09:24:30.308Z,7.00
2022-09-07T09:28:32.452Z,4.13
2022-09-07T09:32:40.953Z,7.80
2022-09-07T09:36:53.763Z,5.23
2022-09-07T09:40:57.087Z,5.10
2022-09-07T09:45:08.075Z,4.37
2022-09-07T09:49:27.575Z,5.07
2022-09-07T09:53:38.167Z,7.23
2022-09-07T10:05:56.865Z,3.80
2022-09-07T10:09:58.937Z,4.40
2022-09-07T10:14:00.097Z,6.07
2022-09-07T10:18:05.548Z,3.30
2022-09-07T10:22:22.585Z,3.43
2022-09-07T10:26:30.967Z,6.03
2022-09-07T10:30:35.761Z,5.47
2022-09-07T10:34:43.631Z,5.00
2022-09-07T10:38:51.382Z,3.03
2022-09-07T10:47:11.844Z,3.57
2022-09-07T10:51:25.671Z,3.30
2022-09-07T10:55:45.482Z,3.73
2022-09-07T11:00:09.662Z,7.33
2022-09-07T11:04:28.695Z,8.70
2022-09-07T11:12:44.698Z,4.57
2022-09-07T11:16:58.942Z,4.90
2022-09-07T11:21:03.027Z,5.77
2022-09-07T11:25:31.852Z,5.50
2022-09-07T11:29:31.305Z,3.93
2022-09-07T11:37:56.767Z,2.50
2022-09-07T11:42:42.279Z,2.77
2022-09-07T11:46:14.506Z,3.70
2022-09-07T11:50:18.407Z,2.87
2022-09-07T11:54:35.187Z,3.37
2022-09-07T11:58:57.923Z,3.80
2022-09-07T12:03:08.603Z,7.80
2022-09-07T12:07:16.104Z,4.90
2022-09-07T12:11:50.113Z,2.50
2022-09-07T12:16:06.463Z,3.93
2022-09-07T12:20:19.921Z,3.87
2022-09-07T12:24:36.787Z,2.90
2022-09-07T12:28:41.591Z,7.60
2022-09-07T12:32:57.371Z,2.37
2022-09-07T12:37:12.279Z,3.50
2022-09-07T12:41:23.366Z,2.53
2022-09-07T12:45:34.378Z,1.70
2022-09-07T12:49:45.039Z,2.27
2022-09-07T12:53:58.716Z,1.97
2022-09-07T12:58:26.546Z,2.33
2022-09-07T13:02:40.330Z,3.37
2022-09-07T13:07:04.589Z,2.40
2022-09-07T13:11:18.517Z,3.20
2022-09-07T13:15:44.395Z,3.23
2022-09-07T13:19:52.148Z,4.63
2022-09-07T13:28:31.373Z,2.50
2022-09-07T13:36:42.333Z,3.90
2022-09-07T13:40:46.531Z,6.20
2022-09-07T13:44:54.131Z,8.47
2022-09-07T13:48:59.046Z,3.10
2022-09-07T13:53:10.099Z,2.87
2022-09-07T13:57:20.420Z,2.87
2022-09-07T14:01:24.589Z,2.80
2022-09-07T14:05:25.789Z,3.27
2022-09-07T14:09:26.855Z,3.23
2022-09-07T14:13:27.913Z,3.53
2022-09-07T14:17:30.619Z,2.97
2022-09-07T14:21:31.753Z,2.13
2022-09-07T14:26:16.144Z,2.20
2022-09-07T14:29:36.400Z,2.40
2022-09-07T14:33:38.134Z,2.00
2022-09-07T14:37:39.634Z,2.37
2022-09-07T14:41:41.568Z,4.33
2022-09-07T14:45:42.827Z,3.73
2022-09-07T14:49:47.604Z,3.27
2022-09-07T14:53:54.460Z,4.10
2022-09-07T14:58:14.423Z,2.63
2022-09-07T15:02:24.220Z,2.27
2022-09-07T15:11:32.934Z,4.87
2022-09-07T15:14:48.287Z,6.07
2022-09-07T15:19:14.137Z,2.37
2022-09-07T15:23:19.513Z,2.43
2022-09-07T15:27:29.267Z,4.33
2022-09-07T15:31:41.704Z,4.93
2022-09-07T15:35:39.195Z,2.47
2022-09-07T15:39:40.614Z,2.70
2022-09-07T15:43:41.666Z,2.93
2022-09-07T15:47:46.979Z,2.37
2022-09-07T15:55:54.128Z,3.53
2022-09-07T15:59:55.032Z,3.93
2022-09-07T16:03:57.805Z,2.20
2022-09-07T16:16:06.025Z,2.43
2022-09-07T16:20:08.161Z,2.47
2022-09-07T16:24:09.251Z,2.50
2022-09-07T16:28:10.358Z,2.93
2022-09-07T16:36:16.155Z,2.60
2022-09-07T16:40:18.364Z,3.63
2022-09-07T16:44:19.384Z,2.80
2022-09-07T16:48:20.483Z,3.07
2022-09-07T16:52:22.661Z,3.40
2022-09-07T16:56:27.016Z,2.50
2022-09-07T17:00:31.301Z,2.70
2022-09-07T17:04:30.962Z,2.47
2022-09-07T17:08:33.731Z,4.10
2022-09-07T17:12:35.108Z,3.30
2022-09-07T17:16:38.459Z,6.93
2022-09-07T17:20:39.511Z,2.77
2022-09-07T17:24:41.139Z,2.97
2022-09-07T17:28:44.894Z,4.87
2022-09-07T17:32:45.951Z,2.80
2022-09-07T17:36:47.362Z,4.53
2022-09-07T17:40:48.460Z,3.57
2022-09-07T17:44:52.803Z,4.47
2022-09-07T17:48:54.545Z,3.53
2022-09-07T17:52:55.586Z,3.17
2022-09-07T17:56:56.676Z,3.60
2022-09-07T18:01:06.386Z,3.63
2022-09-07T18:05:07.864Z,5.57
2022-09-07T18:09:09.006Z,7.50
2022-09-07T18:13:10.022Z,4.97
2022-09-07T18:17:11.140Z,5.67
2022-09-07T18:21:18.852Z,5.40
2022-09-07T18:25:19.965Z,2.73
2022-09-07T18:29:34.010Z,3.30
2022-09-07T18:33:26.930Z,6.30
2022-09-07T18:37:31.282Z,3.97
2022-09-07T18:41:30.888Z,4.30
2022-09-07T18:45:31.919Z,3.93
2022-09-07T18:49:32.949Z,9.13
2022-09-07T18:53:34.995Z,4.10
2022-09-07T18:57:36.707Z,4.53
2022-09-07T19:01:37.747Z,4.80
2022-09-07T19:05:54.650Z,4.13
2022-09-07T19:09:42.254Z,5.97
2022-09-07T19:13:43.724Z,3.97
2022-09-07T19:17:44.986Z,4.67
2022-09-07T19:21:45.957Z,5.67
2022-09-07T19:25:47.355Z,6.23
2022-09-07T19:29:48.755Z,4.42
2022-09-07T19:34:12.452Z,4.00
2022-09-07T19:38:13.780Z,6.03
2022-09-07T19:42:14.831Z,4.87
2022-09-07T19:46:21.402Z,5.97
2022-09-07T19:50:21.590Z,5.03
2022-09-07T19:54:22.456Z,5.13
2022-09-07T19:58:23.522Z,4.50
2022-09-07T20:02:24.569Z,5.40
2022-09-07T20:06:26.373Z,8.60
2022-09-07T20:10:27.503Z,5.30
2022-09-07T20:14:28.854Z,5.13
2022-09-07T20:18:30.425Z,10.90
2022-09-07T20:22:31.706Z,6.63
2022-09-07T20:26:32.823Z,5.90
2022-09-07T20:30:34.002Z,6.00
2022-09-07T20:34:35.567Z,7.00
2022-09-07T20:38:40.780Z,5.93
2022-09-07T20:42:41.957Z,5.57
2022-09-07T20:46:43.331Z,6.23
2022-09-07T20:50:48.137Z,7.30
2022-09-07T20:54:49.520Z,5.57
2022-09-07T20:58:59.367Z,5.87
2022-09-07T21:03:00.455Z,6.80
2022-09-07T21:07:01.552Z,6.10
2022-09-07T21:11:10.803Z,7.07
2022-09-07T21:15:11.780Z,5.87
2022-09-07T21:19:12.756Z,6.10
2022-09-07T21:23:13.711Z,6.17
2022-09-07T21:27:14.666Z,5.73
2022-09-07T21:31:15.751Z,6.23
2022-09-07T21:35:18.100Z,5.47
2022-09-07T21:39:20.072Z,7.13
2022-09-07T21:43:21.047Z,5.00
2022-09-07T21:47:22.127Z,5.07
2022-09-07T21:51:24.120Z,6.07
2022-09-07T21:55:25.216Z,6.30
2022-09-07T21:59:26.236Z,8.30
2022-09-07T22:03:27.265Z,6.80
2022-09-07T22:07:28.386Z,5.83
2022-09-07T22:11:30.880Z,5.33
2022-09-07T22:15:37.544Z,4.70
2022-09-07T22:19:38.921Z,5.23
2022-09-07T22:23:44.870Z,5.83
2022-09-07T22:27:45.752Z,4.90
2022-09-07T22:31:46.769Z,5.10
2022-09-07T22:35:48.161Z,5.70
2022-09-07T22:39:49.170Z,5.57
2022-09-07T22:43:50.337Z,6.37
2022-09-07T22:47:51.407Z,6.00
2022-09-07T22:51:52.244Z,7.43
2022-09-07T22:55:54.163Z,6.53
2022-09-07T22:59:55.250Z,5.40
2022-09-07T23:03:57.242Z,5.50
2022-09-07T23:07:58.480Z,6.23
2022-09-07T23:11:59.525Z,5.37
2022-09-07T23:16:05.500Z,5.27
2022-09-07T23:20:07.575Z,6.27
2022-09-07T23:24:17.726Z,6.73
2022-09-07T23:28:18.891Z,6.57
2022-09-07T23:32:20.005Z,8.00
2022-09-07T23:36:21.234Z,6.07
2022-09-07T23:40:23.323Z,7.57
2022-09-07T23:44:24.431Z,5.43
2022-09-07T23:48:25.933Z,5.47
2022-09-07T23:52:27.155Z,6.47
2022-09-07T23:56:28.753Z,6.10
